sensor_id;sensor_type;location;lat;lon;timestamp;P1;durP1;ratioP1;P2;durP2;ratioP2
3331;SDS011;1678;50.94845400;5.30809100;2023-02-15T16:16:21;7.97;;;7.07;;
3331;SDS011;1678;50.94845400;5.30809100;2023-02-15T16:18:51;10.00;;;7.93;;
3331;SDS011;1678;50.94845400;5.30809100;2023-02-15T16:21:21;8.60;;;7.90;;
3331;SDS011;1678;50.94845400;5.30809100;2023-02-15T16:23:59;10.20;;;9.57;;
3331;SDS011;1678;50.94845400;5.30809100;2023-02-15T16:26:56;10.03;;;9.20;;
3331;SDS011;1678;50.94845400;5.30809100;2023-02-15T16:29:41;10.53;;;9.63;;
3331;SDS011;1678;50.94845400;5.30809100;2023-02-15T16:34:33;10.07;;;9.43;;
3331;SDS011;1678;50.94845400;5.30809100;2023-02-15T16:37:14;9.07;;;8.00;;
3331;SDS011;1678;50.94845400;5.30809100;2023-02-15T16:39:43;8.33;;;6.93;;
3331;SDS011;1678;50.94845400;5.30809100;2023-02-15T16:42:14;7.37;;;6.57;;
3331;SDS011;1678;50.94845400;5.30809100;2023-02-15T16:44:43;7.73;;;7.23;;
3331;SDS011;1678;50.94845400;5.30809100;2023-02-15T16:48:59;6.43;;;5.93;;
3331;SDS011;1678;50.94845400;5.30809100;2023-02-15T16:51:31;6.03;;;5.67;;
3331;SDS011;1678;50.94845400;5.30809100;2023-02-15T16:54:03;8.67;;;7.83;;
3331;SDS011;1678;50.94845400;5.30809100;2023-02-15T16:56:35;7.57;;;7.17;;
3331;SDS011;1678;50.94845400;5.30809100;2023-02-15T16:59:03;7.37;;;6.83;;
3331;SDS011;1678;50.94845400;5.30809100;2023-02-15T17:01:32;8.73;;;8.10;;
3331;SDS011;1678;50.94845400;5.30809100;2023-02-15T17:04:12;7.33;;;6.83;;
3331;SDS011;1678;50.94845400;5.30809100;2023-02-15T17:07:00;8.97;;;8.10;;
3331;SDS011;1678;50.94845400;5.30809100;2023-02-15T17:09:31;7.87;;;7.47;;
3331;SDS011;1678;50.94845400;5.30809100;2023-02-15T17:12:00;7.20;;;6.80;;
3331;SDS011;1678;50.94845400;5.30809100;2023-02-15T17:14:30;7.60;;;6.83;;
3331;SDS011;1678;50.94845400;5.30809100;2023-02-15T17:16:59;7.80;;;6.97;;
3331;SDS011;1678;50.94845400;5.30809100;2023-02-15T17:19:46;7.20;;;6.80;;
3331;SDS011;1678;50.94845400;5.30809100;2023-02-15T19:22:12;56.67;;;32.50;;
3331;SDS011;1678;50.94845400;5.30809100;2023-02-15T19:24:41;54.17;;;32.73;;
3331;SDS011;1678;50.94845400;5.30809100;2023-02-15T19:27:16;68.53;;;35.33;;
3331;SDS011;1678;50.94845400;5.30809100;2023-02-15T19:29:48;58.47;;;31.50;;
3331;SDS011;1678;50.94845400;5.30809100;2023-02-15T19:32:16;58.60;;;32.87;;
3331;SDS011;1678;50.94845400;5.30809100;2023-02-15T19:34:46;50.67;;;31.47;;
3331;SDS011;1678;50.94845400;5.30809100;2023-02-15T19:37:21;60.90;;;33.00;;
3331;SDS011;1678;50.94845400;5.30809100;2023-02-15T19:39:51;46.60;;;29.47;;
3331;SDS011;1678;50.94845400;5.30809100;2023-02-15T19:42:22;61.47;;;32.40;;
3331;SDS011;1678;50.94845400;5.30809100;2023-02-15T19:44:50;52.73;;;29.03;;
3331;SDS011;1678;50.94845400;5.30809100;2023-02-15T19:47:20;53.03;;;32.27;;
3331;SDS011;1678;50.94845400;5.30809100;2023-02-15T19:49:49;51.50;;;32.23;;
3331;SDS011;1678;50.94845400;5.30809100;2023-02-15T19:52:18;59.60;;;34.97;;
3331;SDS011;1678;50.94845400;5.30809100;2023-02-15T19:54:50;55.42;;;32.47;;
3331;SDS011;1678;50.94845400;5.30809100;2023-02-15T19:57:21;50.27;;;31.60;;
3331;SDS011;1678;50.94845400;5.30809100;2023-02-15T19:59:50;54.17;;;33.83;;
3331;SDS011;1678;50.94845400;5.30809100;2023-02-15T20:02:18;53.13;;;31.33;;
3331;SDS011;1678;50.94845400;5.30809100;2023-02-15T20:04:47;62.10;;;35.03;;
3331;SDS011;1678;50.94845400;5.30809100;2023-02-15T20:07:18;63.80;;;33.50;;
3331;SDS011;1678;50.94845400;5.30809100;2023-02-15T20:09:50;47.33;;;32.75;;
3331;SDS011;1678;50.94845400;5.30809100;2023-02-15T20:12:20;62.90;;;33.57;;
3331;SDS011;1678;50.94845400;5.30809100;2023-02-15T20:14:49;68.45;;;35.20;;
3331;SDS011;1678;50.94845400;5.30809100;2023-02-15T20:17:18;61.30;;;34.17;;
3331;SDS011;1678;50.94845400;5.30809100;2023-02-15T20:19:46;62.30;;;32.70;;
3331;SDS011;1678;50.94845400;5.30809100;2023-02-15T20:22:19;49.53;;;32.17;;
3331;SDS011;1678;50.94845400;5.30809100;2023-02-15T20:24:49;45.00;;;29.92;;
3331;SDS011;1678;50.94845400;5.30809100;2023-02-15T20:27:20;44.53;;;31.55;;
3331;SDS011;1678;50.94845400;5.30809100;2023-02-15T20:29:49;65.93;;;36.13;;
3331;SDS011;1678;50.94845400;5.30809100;2023-02-15T20:32:21;61.65;;;35.08;;
3331;SDS011;1678;50.94845400;5.30809100;2023-02-15T20:34:50;57.83;;;32.45;;
3331;SDS011;1678;50.94845400;5.30809100;2023-02-15T20:37:21;54.95;;;33.30;;
3331;SDS011;1678;50.94845400;5.30809100;2023-02-15T20:39:51;70.88;;;34.38;;
3331;SDS011;1678;50.94845400;5.30809100;2023-02-15T20:42:19;59.65;;;33.38;;
3331;SDS011;1678;50.94845400;5.30809100;2023-02-15T20:44:48;57.25;;;34.03;;
3331;SDS011;1678;50.94845400;5.30809100;2023-02-15T20:47:16;59.17;;;35.78;;
3331;SDS011;1678;50.94845400;5.30809100;2023-02-15T20:49:44;51.57;;;32.37;;
3331;SDS011;1678;50.94845400;5.30809100;2023-02-15T20:52:15;60.55;;;32.30;;
3331;SDS011;1678;50.94845400;5.30809100;2023-02-15T20:54:47;63.95;;;32.80;;
3331;SDS011;1678;50.94845400;5.30809100;2023-02-15T20:57:15;57.10;;;29.85;;
3331;SDS011;1678;50.94845400;5.30809100;2023-02-15T20:59:43;56.35;;;32.70;;
3331;SDS011;1678;50.94845400;5.30809100;2023-02-15T21:02:15;56.45;;;31.88;;
3331;SDS011;1678;50.94845400;5.30809100;2023-02-15T21:04:45;49.53;;;29.02;;
3331;SDS011;1678;50.94845400;5.30809100;2023-02-15T21:07:13;60.40;;;33.33;;
3331;SDS011;1678;50.94845400;5.30809100;2023-02-15T21:09:43;53.33;;;28.77;;
3331;SDS011;1678;50.94845400;5.30809100;2023-02-15T21:12:13;63.05;;;33.70;;
3331;SDS011;1678;50.94845400;5.30809100;2023-02-15T21:14:42;60.00;;;32.28;;
3331;SDS011;1678;50.94845400;5.30809100;2023-02-15T21:17:11;48.47;;;30.58;;
3331;SDS011;1678;50.94845400;5.30809100;2023-02-15T21:19:40;58.33;;;32.92;;
3331;SDS011;1678;50.94845400;5.30809100;2023-02-15T21:22:09;57.58;;;30.60;;
3331;SDS011;1678;50.94845400;5.30809100;2023-02-15T21:24:41;47.28;;;30.83;;
3331;SDS011;1678;50.94845400;5.30809100;2023-02-15T21:27:16;52.08;;;32.22;;
3331;SDS011;1678;50.94845400;5.30809100;2023-02-15T21:29:45;51.47;;;30.60;;
3331;SDS011;1678;50.94845400;5.30809100;2023-02-15T21:32:13;57.83;;;30.42;;
3331;SDS011;1678;50.94845400;5.30809100;2023-02-15T21:34:41;51.78;;;28.92;;
3331;SDS011;1678;50.94845400;5.30809100;2023-02-15T21:37:17;62.78;;;31.00;;
3331;SDS011;1678;50.94845400;5.30809100;2023-02-15T21:39:54;51.40;;;27.10;;
3331;SDS011;1678;50.94845400;5.30809100;2023-02-15T21:42:23;57.45;;;28.83;;
3331;SDS011;1678;50.94845400;5.30809100;2023-02-15T21:45:12;49.15;;;29.50;;
3331;SDS011;1678;50.94845400;5.30809100;2023-02-15T21:47:58;58.00;;;32.42;;
3331;SDS011;1678;50.94845400;5.30809100;2023-02-15T21:50:26;46.63;;;29.40;;
3331;SDS011;1678;50.94845400;5.30809100;2023-02-15T21:53:15;50.00;;;29.90;;
3331;SDS011;1678;50.94845400;5.30809100;2023-02-15T21:55:48;51.45;;;31.52;;
3331;SDS011;1678;50.94845400;5.30809100;2023-02-15T21:58:20;43.72;;;28.17;;
3331;SDS011;1678;50.94845400;5.30809100;2023-02-15T22:00:49;60.83;;;29.40;;
3331;SDS011;1678;50.94845400;5.30809100;2023-02-15T22:03:20;54.72;;;31.02;;
3331;SDS011;1678;50.94845400;5.30809100;2023-02-15T22:05:49;51.80;;;29.55;;
3331;SDS011;1678;50.94845400;5.30809100;2023-02-15T22:08:17;50.63;;;28.83;;
3331;SDS011;1678;50.94845400;5.30809100;2023-02-15T22:10:45;46.40;;;27.40;;
3331;SDS011;1678;50.94845400;5.30809100;2023-02-15T22:13:14;52.13;;;32.13;;
3331;SDS011;1678;50.94845400;5.30809100;2023-02-15T22:15:47;50.03;;;30.40;;
3331;SDS011;1678;50.94845400;5.30809100;2023-02-15T22:18:20;51.05;;;28.73;;
3331;SDS011;1678;50.94845400;5.30809100;2023-02-15T22:20:50;43.92;;;29.60;;
3331;SDS011;1678;50.94845400;5.30809100;2023-02-15T22:23:18;49.55;;;31.98;;
3331;SDS011;1678;50.94845400;5.30809100;2023-02-15T22:25:49;50.47;;;29.90;;
3331;SDS011;1678;50.94845400;5.30809100;2023-02-15T22:28:22;54.90;;;32.17;;
3331;SDS011;1678;50.94845400;5.30809100;2023-02-15T22:30:55;55.60;;;28.00;;
3331;SDS011;1678;50.94845400;5.30809100;2023-02-15T22:33:24;54.05;;;28.65;;
3331;SDS011;1678;50.94845400;5.30809100;2023-02-15T22:35:53;60.20;;;30.92;;
3331;SDS011;1678;50.94845400;5.30809100;2023-02-15T22:38:22;59.63;;;30.67;;
3331;SDS011;1678;50.94845400;5.30809100;2023-02-15T22:40:51;49.38;;;31.73;;
3331;SDS011;1678;50.94845400;5.30809100;2023-02-15T22:43:27;47.65;;;28.77;;
3331;SDS011;1678;50.94845400;5.30809100;2023-02-15T22:46:04;62.55;;;31.52;;
3331;SDS011;1678;50.94845400;5.30809100;2023-02-15T22:48:33;62.78;;;29.45;;
3331;SDS011;1678;50.94845400;5.30809100;2023-02-15T22:51:02;52.60;;;28.55;;
3331;SDS011;1678;50.94845400;5.30809100;2023-02-15T22:53:30;51.95;;;30.13;;
3331;SDS011;1678;50.94845400;5.30809100;2023-02-15T22:55:59;48.35;;;28.33;;
3331;SDS011;1678;50.94845400;5.30809100;2023-02-15T22:58:32;50.35;;;26.40;;
3331;SDS011;1678;50.94845400;5.30809100;2023-02-15T23:01:01;43.67;;;25.17;;
3331;SDS011;1678;50.94845400;5.30809100;2023-02-15T23:03:31;45.95;;;26.65;;
3331;SDS011;1678;50.94845400;5.30809100;2023-02-15T23:05:59;48.28;;;28.17;;
3331;SDS011;1678;50.94845400;5.30809100;2023-02-15T23:08:27;54.83;;;29.45;;
3331;SDS011;1678;50.94845400;5.30809100;2023-02-15T23:10:56;51.22;;;29.27;;
3331;SDS011;1678;50.94845400;5.30809100;2023-02-15T23:13:25;48.63;;;29.70;;
3331;SDS011;1678;50.94845400;5.30809100;2023-02-15T23:15:57;53.63;;;29.27;;
3331;SDS011;1678;50.94845400;5.30809100;2023-02-15T23:18:27;57.75;;;28.60;;
3331;SDS011;1678;50.94845400;5.30809100;2023-02-15T23:20:59;50.58;;;28.27;;
3331;SDS011;1678;50.94845400;5.30809100;2023-02-15T23:23:30;56.20;;;29.75;;
3331;SDS011;1678;50.94845400;5.30809100;2023-02-15T23:26:00;56.28;;;30.17;;
3331;SDS011;1678;50.94845400;5.30809100;2023-02-15T23:28:30;46.75;;;29.92;;
3331;SDS011;1678;50.94845400;5.30809100;2023-02-15T23:31:01;66.43;;;28.58;;
3331;SDS011;1678;50.94845400;5.30809100;2023-02-15T23:33:36;47.72;;;27.13;;
3331;SDS011;1678;50.94845400;5.30809100;2023-02-15T23:36:07;53.90;;;31.02;;
3331;SDS011;1678;50.94845400;5.30809100;2023-02-15T23:38:49;58.95;;;29.45;;
3331;SDS011;1678;50.94845400;5.30809100;2023-02-15T23:41:18;53.70;;;28.60;;
3331;SDS011;1678;50.94845400;5.30809100;2023-02-15T23:43:49;54.88;;;31.25;;
3331;SDS011;1678;50.94845400;5.30809100;2023-02-15T23:46:25;52.05;;;31.27;;
3331;SDS011;1678;50.94845400;5.30809100;2023-02-15T23:48:55;58.40;;;30.80;;
3331;SDS011;1678;50.94845400;5.30809100;2023-02-15T23:51:28;50.33;;;29.17;;
3331;SDS011;1678;50.94845400;5.30809100;2023-02-15T23:53:57;45.50;;;27.13;;
3331;SDS011;1678;50.94845400;5.30809100;2023-02-15T23:56:25;46.45;;;27.70;;
3331;SDS011;1678;50.94845400;5.30809100;2023-02-15T23:58:54;45.50;;;28.02;;
